createdAt,value
2022-12-18T00:01:32.303Z,58.85
2022-12-18T00:03:58.854Z,57.45
2022-12-18T00:06:25.771Z,55.20
2022-12-18T00:08:52.110Z,55.22
2022-12-18T00:11:20.672Z,50.45
2022-12-18T00:13:47.257Z,58.22
2022-12-18T00:16:14.929Z,58.33
2022-12-18T00:18:42.122Z,63.28
2022-12-18T00:21:11.174Z,54.88
2022-12-18T00:23:38.604Z,46.75
2022-12-18T00:26:06.873Z,55.45
2022-12-18T00:28:33.397Z,49.00
2022-12-18T00:31:07.316Z,53.20
2022-12-18T00:33:34.360Z,52.22
2022-12-18T00:36:27.292Z,54.75
2022-12-18T00:38:59.459Z,54.50
2022-12-18T00:41:45.178Z,50.08
2022-12-18T00:44:13.490Z,57.28
2022-12-18T00:46:39.988Z,53.03
2022-12-18T00:49:07.401Z,54.10
2022-12-18T00:51:34.024Z,50.97
2022-12-18T00:54:00.786Z,52.80
2022-12-18T00:56:27.157Z,52.95
2022-12-18T00:58:53.820Z,57.33
2022-12-18T01:01:20.750Z,54.00
2022-12-18T01:03:47.641Z,53.25
2022-12-18T01:06:14.857Z,52.65
2022-12-18T01:08:41.307Z,53.47
2022-12-18T01:11:09.250Z,56.15
2022-12-18T01:13:36.363Z,53.58
2022-12-18T01:16:03.021Z,60.20
2022-12-18T01:18:29.445Z,54.90
2022-12-18T01:20:58.705Z,58.03
2022-12-18T01:23:27.865Z,60.65
2022-12-18T01:25:54.218Z,55.67
2022-12-18T01:28:20.635Z,60.55
2022-12-18T01:30:49.967Z,58.88
2022-12-18T01:33:16.358Z,63.38
2022-12-18T01:35:42.936Z,57.08
2022-12-18T01:38:09.405Z,56.88
2022-12-18T01:40:35.908Z,53.42
2022-12-18T01:43:03.189Z,54.83
2022-12-18T01:45:30.616Z,57.00
2022-12-18T01:47:58.944Z,54.33
2022-12-18T01:50:28.093Z,58.17
2022-12-18T01:53:13.319Z,64.88
2022-12-18T01:55:43.204Z,54.63
2022-12-18T01:58:10.018Z,57.67
2022-12-18T02:00:36.581Z,58.80
2022-12-18T02:03:03.152Z,52.85
2022-12-18T02:05:32.585Z,56.05
2022-12-18T02:08:07.718Z,55.92
2022-12-18T02:10:37.158Z,53.63
2022-12-18T02:13:08.641Z,51.13
2022-12-18T02:15:44.236Z,54.50
2022-12-18T02:18:21.879Z,53.28
2022-12-18T02:20:54.624Z,58.13
2022-12-18T02:23:44.253Z,56.22
2022-12-18T02:26:15.493Z,59.83
2022-12-18T02:28:56.424Z,57.88
2022-12-18T02:31:25.400Z,53.03
2022-12-18T02:33:54.322Z,56.63
2022-12-18T02:36:24.696Z,54.85
2022-12-18T02:38:55.317Z,58.93
2022-12-18T02:41:22.196Z,51.83
2022-12-18T02:43:49.667Z,56.40
2022-12-18T02:46:28.433Z,53.78
2022-12-18T02:48:58.721Z,50.00
2022-12-18T02:51:29.994Z,51.03
2022-12-18T02:54:13.719Z,52.55
2022-12-18T02:56:45.358Z,57.38
2022-12-18T02:59:16.927Z,54.80
2022-12-18T03:01:56.409Z,49.60
2022-12-18T03:04:26.258Z,50.92
2022-12-18T03:06:55.686Z,53.22
2022-12-18T03:09:25.461Z,58.53
2022-12-18T03:12:14.785Z,54.08
2022-12-18T03:14:42.888Z,50.42
2022-12-18T03:17:14.642Z,48.92
2022-12-18T03:19:42.433Z,52.72
2022-12-18T03:22:09.261Z,50.55
2022-12-18T03:24:45.427Z,48.25
2022-12-18T03:27:13.945Z,52.50
2022-12-18T03:29:49.002Z,47.45
2022-12-18T03:32:25.853Z,50.00
2022-12-18T03:34:54.832Z,49.83
2022-12-18T03:37:23.181Z,50.65
2022-12-18T03:39:51.394Z,47.55
2022-12-18T03:42:22.778Z,45.25
2022-12-18T03:44:56.679Z,49.47
2022-12-18T03:47:39.526Z,53.40
2022-12-18T03:50:33.868Z,57.70
2022-12-18T03:53:04.569Z,49.17
2022-12-18T03:55:34.453Z,50.15
2022-12-18T03:58:04.386Z,44.67
2022-12-18T04:00:40.992Z,50.53
2022-12-18T04:03:10.058Z,51.45
2022-12-18T04:05:44.626Z,48.78
2022-12-18T04:08:12.720Z,43.60
2022-12-18T04:10:43.220Z,50.90
2022-12-18T04:13:09.912Z,47.97
2022-12-18T04:15:37.718Z,45.72
2022-12-18T04:18:06.185Z,47.13
2022-12-18T04:20:41.008Z,44.88
2022-12-18T04:23:08.002Z,47.17
2022-12-18T04:25:34.704Z,42.03
2022-12-18T04:28:07.680Z,44.30
2022-12-18T04:30:35.324Z,41.28
2022-12-18T04:33:01.901Z,42.65
2022-12-18T04:35:31.282Z,39.70
2022-12-18T04:37:57.748Z,40.95
2022-12-18T04:40:24.114Z,36.38
2022-12-18T04:42:51.701Z,37.92
2022-12-18T04:45:18.487Z,39.13
2022-12-18T04:47:45.138Z,36.75
2022-12-18T04:50:11.425Z,41.70
2022-12-18T04:52:38.110Z,40.05
2022-12-18T04:55:04.871Z,39.35
2022-12-18T04:57:31.469Z,33.67
2022-12-18T04:59:58.022Z,36.92
2022-12-18T05:02:24.608Z,41.38
2022-12-18T05:04:51.008Z,37.25
2022-12-18T05:07:17.322Z,40.53
2022-12-18T05:09:43.662Z,38.95
2022-12-18T05:12:10.142Z,35.05
2022-12-18T05:14:36.563Z,39.03
2022-12-18T05:17:03.273Z,32.55
2022-12-18T05:19:29.639Z,35.17
2022-12-18T05:21:56.096Z,31.95
2022-12-18T05:24:22.614Z,32.25
2022-12-18T05:26:48.967Z,30.85
2022-12-18T05:29:15.350Z,31.73
2022-12-18T05:31:42.773Z,31.38
2022-12-18T05:34:09.977Z,30.85
2022-12-18T05:36:37.685Z,31.92
2022-12-18T05:39:04.131Z,30.23
2022-12-18T05:41:30.877Z,28.38
2022-12-18T05:43:57.246Z,35.03
2022-12-18T05:46:23.604Z,33.78
2022-12-18T05:48:51.130Z,29.63
2022-12-18T05:51:19.150Z,26.38
2022-12-18T05:53:45.935Z,25.90
2022-12-18T05:56:14.163Z,26.27
2022-12-18T05:58:40.654Z,26.58
2022-12-18T06:01:08.231Z,25.35
2022-12-18T06:03:34.668Z,26.38
2022-12-18T06:06:01.148Z,28.95
2022-12-18T06:08:27.488Z,26.40
2022-12-18T06:10:53.869Z,24.65
2022-12-18T06:13:20.968Z,28.27
2022-12-18T06:15:47.464Z,27.63
2022-12-18T06:18:14.033Z,27.75
2022-12-18T06:20:42.294Z,26.20
2022-12-18T06:23:10.376Z,26.98
2022-12-18T06:25:38.478Z,29.67
2022-12-18T06:28:04.891Z,29.35
2022-12-18T06:30:31.612Z,24.13
2022-12-18T06:32:59.009Z,28.05
2022-12-18T06:35:25.338Z,24.23
2022-12-18T06:37:51.858Z,22.65
2022-12-18T06:40:18.721Z,25.75
2022-12-18T06:42:47.705Z,24.38
2022-12-18T06:45:14.068Z,23.38
2022-12-18T06:47:40.459Z,24.27
2022-12-18T06:50:07.270Z,26.77
2022-12-18T06:52:34.532Z,23.83
2022-12-18T06:55:01.088Z,29.77
2022-12-18T06:57:27.524Z,23.65
2022-12-18T06:59:53.945Z,25.77
2022-12-18T07:02:20.635Z,22.80
2022-12-18T07:04:47.211Z,24.02
2022-12-18T07:07:16.500Z,23.35
2022-12-18T07:09:42.801Z,26.92
2022-12-18T07:12:09.137Z,23.55
2022-12-18T07:14:35.434Z,24.25
2022-12-18T07:17:02.578Z,23.80
2022-12-18T07:19:30.058Z,27.98
2022-12-18T07:21:57.504Z,20.17
2022-12-18T07:24:23.815Z,22.85
2022-12-18T07:26:50.120Z,20.75
2022-12-18T07:29:16.705Z,22.25
2022-12-18T07:31:43.179Z,25.95
2022-12-18T07:34:13.525Z,23.45
2022-12-18T07:36:39.915Z,21.45
2022-12-18T07:39:06.330Z,25.35
2022-12-18T07:41:32.812Z,23.80
2022-12-18T07:44:09.858Z,21.67
2022-12-18T07:46:36.218Z,29.58
2022-12-18T07:49:02.553Z,87.88
2022-12-18T07:51:28.913Z,70.70
2022-12-18T07:53:55.295Z,42.78
2022-12-18T07:56:27.872Z,28.38
2022-12-18T07:58:55.612Z,23.30
2022-12-18T08:01:22.236Z,25.13
2022-12-18T08:03:48.782Z,27.55
2022-12-18T08:06:16.499Z,24.65
2022-12-18T08:08:43.244Z,23.95
2022-12-18T08:11:09.691Z,26.80
2022-12-18T08:13:36.330Z,23.35
2022-12-18T08:16:04.519Z,20.65
2022-12-18T08:18:30.952Z,24.80
2022-12-18T08:20:57.317Z,22.83
2022-12-18T08:23:26.468Z,24.75
2022-12-18T08:28:21.527Z,18.35
2022-12-18T08:30:52.160Z,23.05
2022-12-18T08:33:23.305Z,23.20
2022-12-18T08:35:52.964Z,25.08
2022-12-18T08:38:19.303Z,24.48
2022-12-18T08:40:46.409Z,20.23
2022-12-18T08:43:31.684Z,21.10
2022-12-18T08:45:58.282Z,23.30
2022-12-18T08:48:24.709Z,21.23
2022-12-18T08:50:55.011Z,24.48
2022-12-18T08:53:21.476Z,18.08
2022-12-18T08:55:50.357Z,21.85
2022-12-18T08:58:17.034Z,23.70
2022-12-18T09:00:43.622Z,23.23
2022-12-18T09:03:15.149Z,21.27
2022-12-18T09:05:41.874Z,26.08
2022-12-18T09:08:08.225Z,22.70
2022-12-18T09:10:38.867Z,21.90
2022-12-18T09:13:10.600Z,21.67
2022-12-18T09:15:41.206Z,25.08
2022-12-18T09:18:08.087Z,22.33
2022-12-18T09:20:34.475Z,22.48
2022-12-18T09:23:00.837Z,22.63
2022-12-18T09:25:32.677Z,23.40
2022-12-18T09:27:59.023Z,22.20
2022-12-18T09:30:26.439Z,21.23
2022-12-18T09:32:54.929Z,21.73
2022-12-18T09:35:21.375Z,21.55
2022-12-18T09:37:47.809Z,18.48
2022-12-18T09:40:21.573Z,21.27
2022-12-18T09:42:52.977Z,20.67
2022-12-18T09:47:48.089Z,20.52
2022-12-18T09:50:32.837Z,15.75
2022-12-18T09:53:01.281Z,19.70
2022-12-18T09:55:38.818Z,20.45
2022-12-18T09:58:14.126Z,23.27
2022-12-18T10:00:40.623Z,21.25
2022-12-18T10:03:11.708Z,22.23
2022-12-18T10:05:40.334Z,19.73
2022-12-18T10:08:09.643Z,17.65
2022-12-18T10:10:55.583Z,22.83
2022-12-18T10:13:26.681Z,22.60
2022-12-18T10:16:02.864Z,21.95
2022-12-18T10:18:38.488Z,20.23
2022-12-18T10:21:09.225Z,20.48
2022-12-18T10:23:54.205Z,22.90
2022-12-18T10:26:23.227Z,22.70
2022-12-18T10:28:50.238Z,24.13
2022-12-18T10:31:22.000Z,21.90
2022-12-18T10:33:51.421Z,29.08
2022-12-18T10:36:17.780Z,21.63
2022-12-18T10:38:44.788Z,24.73
2022-12-18T10:41:22.969Z,22.65
2022-12-18T10:43:51.717Z,33.85
2022-12-18T10:46:18.845Z,34.60
2022-12-18T10:48:48.335Z,33.65
2022-12-18T10:51:22.055Z,25.52
2022-12-18T10:53:53.407Z,24.58
2022-12-18T10:56:20.925Z,22.85
2022-12-18T10:58:56.061Z,19.77
2022-12-18T11:01:22.694Z,19.33
2022-12-18T11:03:55.250Z,25.20
2022-12-18T11:06:25.611Z,19.63
2022-12-18T11:09:21.692Z,17.83
2022-12-18T11:11:53.251Z,21.45
2022-12-18T11:14:25.789Z,21.95
2022-12-18T11:19:41.200Z,18.88
2022-12-18T11:22:27.389Z,18.73
2022-12-18T11:25:30.850Z,16.38
2022-12-18T11:27:49.256Z,18.90
2022-12-18T11:30:21.046Z,16.48
2022-12-18T11:32:56.492Z,15.00
2022-12-18T11:35:26.617Z,19.75
2022-12-18T11:37:58.933Z,18.60
2022-12-18T11:40:37.859Z,19.20
2022-12-18T11:43:24.644Z,19.05
2022-12-18T11:45:56.135Z,15.85
2022-12-18T11:48:30.808Z,17.40
2022-12-18T11:50:58.545Z,20.15
2022-12-18T11:53:28.045Z,20.90
2022-12-18T11:56:02.985Z,15.07
2022-12-18T11:58:47.560Z,16.55
2022-12-18T12:01:16.020Z,17.60
2022-12-18T12:03:51.773Z,65.35
2022-12-18T12:06:22.805Z,22.80
2022-12-18T12:09:08.048Z,20.30
2022-12-18T12:11:38.379Z,18.70
2022-12-18T12:14:04.701Z,19.07
2022-12-18T12:16:37.038Z,19.33
2022-12-18T12:19:26.570Z,18.55
2022-12-18T12:22:04.856Z,17.98
2022-12-18T12:24:49.153Z,21.65
2022-12-18T12:27:30.654Z,18.48
2022-12-18T12:30:00.146Z,16.75
2022-12-18T12:32:49.738Z,17.70
2022-12-18T12:35:19.638Z,18.85
2022-12-18T12:38:04.802Z,18.13
2022-12-18T12:40:53.789Z,18.90
2022-12-18T12:43:32.098Z,19.42
2022-12-18T12:46:01.202Z,18.65
2022-12-18T12:48:36.534Z,18.58
2022-12-18T12:51:05.306Z,24.08
2022-12-18T12:53:34.239Z,19.55
2022-12-18T12:56:01.793Z,25.67
2022-12-18T12:58:32.339Z,21.15
2022-12-18T13:01:23.101Z,21.55
2022-12-18T13:03:49.974Z,20.65
2022-12-18T13:06:27.191Z,21.00
2022-12-18T13:08:56.127Z,17.02
2022-12-18T13:11:48.661Z,17.98
2022-12-18T13:14:25.936Z,23.42
2022-12-18T13:16:52.384Z,24.13
2022-12-18T13:19:23.125Z,22.92
2022-12-18T13:21:57.115Z,16.25
2022-12-18T13:24:23.549Z,22.02
2022-12-18T13:26:49.990Z,21.40
2022-12-18T13:29:36.245Z,21.08
2022-12-18T13:32:03.001Z,20.55
2022-12-18T13:34:31.825Z,24.02
2022-12-18T13:37:18.024Z,18.25
2022-12-18T13:39:44.748Z,18.17
2022-12-18T13:42:31.164Z,18.60
2022-12-18T13:44:58.637Z,17.92
2022-12-18T13:47:35.537Z,19.23
2022-12-18T13:50:09.917Z,27.77
2022-12-18T13:52:40.770Z,17.75
2022-12-18T13:55:15.781Z,23.15
2022-12-18T13:57:42.433Z,21.25
2022-12-18T14:00:18.075Z,20.00
2022-12-18T14:02:45.649Z,18.17
2022-12-18T14:05:25.126Z,18.67
2022-12-18T14:07:54.533Z,21.00
2022-12-18T14:13:10.056Z,19.80
2022-12-18T14:15:41.409Z,20.08
2022-12-18T14:18:10.916Z,24.90
2022-12-18T14:20:40.406Z,18.90
2022-12-18T14:23:25.504Z,21.00
2022-12-18T14:25:51.804Z,20.55
2022-12-18T14:28:18.363Z,21.27
2022-12-18T14:30:46.160Z,20.88
2022-12-18T14:33:13.877Z,21.05
2022-12-18T14:35:44.143Z,21.90
2022-12-18T14:38:10.469Z,21.92
2022-12-18T14:40:36.882Z,21.52
2022-12-18T14:43:03.361Z,20.73
2022-12-18T14:45:41.657Z,19.58
2022-12-18T14:48:29.391Z,19.83
2022-12-18T14:51:03.449Z,20.27
2022-12-18T14:53:34.041Z,22.73
2022-12-18T14:56:00.919Z,21.42
2022-12-18T14:58:27.824Z,18.50
2022-12-18T15:00:55.401Z,21.13
2022-12-18T15:03:22.818Z,21.52
2022-12-18T15:05:49.590Z,20.05
2022-12-18T15:08:29.050Z,22.20
2022-12-18T15:10:55.556Z,21.15
2022-12-18T15:13:22.794Z,18.77
2022-12-18T15:15:49.733Z,18.80
2022-12-18T15:18:21.922Z,19.90
2022-12-18T15:20:51.512Z,18.23
2022-12-18T15:23:39.313Z,21.40
2022-12-18T15:26:10.029Z,20.70
2022-12-18T15:28:51.026Z,23.73
2022-12-18T15:31:17.958Z,21.80
2022-12-18T15:33:47.050Z,21.67
2022-12-18T15:36:14.224Z,22.05
2022-12-18T15:38:40.669Z,20.85
2022-12-18T15:41:22.931Z,19.58
2022-12-18T15:43:51.779Z,19.85
2022-12-18T15:46:19.589Z,22.40
2022-12-18T15:48:47.955Z,21.20
2022-12-18T15:51:19.233Z,22.67
2022-12-18T15:53:45.660Z,23.52
2022-12-18T15:56:30.713Z,19.48
2022-12-18T15:58:57.644Z,23.80
2022-12-18T16:01:25.473Z,24.70
2022-12-18T16:03:52.055Z,22.92
2022-12-18T16:06:18.586Z,20.90
2022-12-18T16:08:44.989Z,23.02
2022-12-18T16:11:21.789Z,18.52
2022-12-18T16:13:48.223Z,20.42
2022-12-18T16:16:14.687Z,22.00
2022-12-18T16:18:41.198Z,23.17
2022-12-18T16:21:08.920Z,26.27
2022-12-18T16:23:35.369Z,23.55
2022-12-18T16:26:01.730Z,23.40
2022-12-18T16:28:28.058Z,23.10
2022-12-18T16:30:56.464Z,23.10
2022-12-18T16:33:22.994Z,25.85
2022-12-18T16:35:52.249Z,23.17
2022-12-18T16:38:18.591Z,22.90
2022-12-18T16:41:04.976Z,18.77
2022-12-18T16:43:31.427Z,23.70
2022-12-18T16:45:59.667Z,19.77
2022-12-18T16:48:26.032Z,22.40
2022-12-18T16:51:00.242Z,23.63
2022-12-18T16:53:26.691Z,17.30
2022-12-18T16:55:56.463Z,25.23
2022-12-18T16:58:22.906Z,21.90
2022-12-18T17:00:49.274Z,26.13
2022-12-18T17:03:16.118Z,23.58
2022-12-18T17:05:42.669Z,22.92
2022-12-18T17:08:09.141Z,23.95
2022-12-18T17:10:36.012Z,27.27
2022-12-18T17:13:02.519Z,26.10
2022-12-18T17:15:28.898Z,16.08
2022-12-18T17:17:55.301Z,22.55
2022-12-18T17:20:23.003Z,22.60
2022-12-18T17:22:49.366Z,31.27
2022-12-18T17:25:15.792Z,29.88
2022-12-18T17:27:42.105Z,24.73
2022-12-18T17:30:09.342Z,24.38
2022-12-18T17:32:35.826Z,24.70
2022-12-18T17:35:06.906Z,24.50
2022-12-18T17:37:35.025Z,26.40
2022-12-18T17:40:01.879Z,25.38
2022-12-18T17:42:28.313Z,26.35
2022-12-18T17:44:55.840Z,22.95
2022-12-18T17:47:22.247Z,32.13
2022-12-18T17:49:48.686Z,25.20
2022-12-18T17:52:15.073Z,26.75
2022-12-18T17:54:42.159Z,25.20
2022-12-18T17:57:08.797Z,24.33
2022-12-18T17:59:35.290Z,27.10
2022-12-18T18:02:02.218Z,23.02
2022-12-18T18:04:29.553Z,28.08
2022-12-18T18:06:55.979Z,29.40
2022-12-18T18:09:22.296Z,26.00
2022-12-18T18:12:07.609Z,29.88
2022-12-18T18:14:34.178Z,29.63
2022-12-18T18:17:04.150Z,27.02
2022-12-18T18:19:30.962Z,26.33
2022-12-18T18:21:57.369Z,20.13
2022-12-18T18:24:24.130Z,25.15
2022-12-18T18:26:50.579Z,25.63
2022-12-18T18:29:18.916Z,31.50
2022-12-18T18:31:46.081Z,26.23
2022-12-18T18:34:16.565Z,26.23
2022-12-18T18:36:43.272Z,23.07
2022-12-18T18:39:09.704Z,27.80
2022-12-18T18:41:36.862Z,27.92
2022-12-18T18:44:03.360Z,26.65
2022-12-18T18:46:29.987Z,26.25
2022-12-18T18:48:56.445Z,22.58
2022-12-18T18:51:22.807Z,27.92
2022-12-18T18:53:49.904Z,26.13
2022-12-18T18:59:03.744Z,27.83
2022-12-18T19:01:30.240Z,27.13
2022-12-18T19:03:56.850Z,24.98
2022-12-18T19:06:24.587Z,28.45
2022-12-18T19:08:51.742Z,34.17
2022-12-18T19:11:37.149Z,25.27
2022-12-18T19:14:07.341Z,26.25
2022-12-18T19:16:34.333Z,28.35
2022-12-18T19:19:02.365Z,25.23
2022-12-18T19:21:31.386Z,22.85
2022-12-18T19:24:00.695Z,27.17
2022-12-18T19:26:30.124Z,27.88
2022-12-18T19:29:06.661Z,20.70
2022-12-18T19:31:36.085Z,27.80
2022-12-18T19:34:02.670Z,29.65
2022-12-18T19:36:29.673Z,26.60
2022-12-18T19:38:58.419Z,27.42
2022-12-18T19:41:25.611Z,25.50
2022-12-18T19:43:54.102Z,27.20
2022-12-18T19:46:21.483Z,29.48
2022-12-18T19:48:48.279Z,26.92
2022-12-18T19:51:16.275Z,27.23
2022-12-18T19:53:43.859Z,26.92
2022-12-18T19:56:11.416Z,30.55
2022-12-18T19:58:37.810Z,28.60
2022-12-18T20:01:04.579Z,30.00
2022-12-18T20:03:33.438Z,28.35
2022-12-18T20:06:09.158Z,26.05
2022-12-18T20:08:35.678Z,30.95
2022-12-18T20:11:02.018Z,25.60
2022-12-18T20:13:28.405Z,37.45
2022-12-18T20:15:54.719Z,26.30
2022-12-18T20:18:21.098Z,31.73
2022-12-18T20:20:48.089Z,33.00
2022-12-18T20:23:16.641Z,33.13
2022-12-18T20:25:43.045Z,29.20
2022-12-18T20:28:09.425Z,30.05
2022-12-18T20:30:35.843Z,37.40
2022-12-18T20:33:02.185Z,28.88
2022-12-18T20:35:31.071Z,35.90
2022-12-18T20:37:57.756Z,34.17
2022-12-18T20:40:25.756Z,41.00
2022-12-18T20:42:53.226Z,32.75
2022-12-18T20:45:19.647Z,34.05
2022-12-18T20:47:46.202Z,35.08
2022-12-18T20:50:12.625Z,34.92
2022-12-18T20:52:39.063Z,33.70
2022-12-18T20:55:06.443Z,35.85
2022-12-18T20:57:33.242Z,35.90
2022-12-18T21:00:00.706Z,35.85
2022-12-18T21:02:27.311Z,31.48
2022-12-18T21:04:54.148Z,33.45
2022-12-18T21:07:20.462Z,34.03
2022-12-18T21:09:46.822Z,33.28
2022-12-18T21:12:35.149Z,38.75
2022-12-18T21:15:11.662Z,32.35
2022-12-18T21:17:44.491Z,37.28
2022-12-18T21:20:13.313Z,33.47
2022-12-18T21:22:44.406Z,34.65
2022-12-18T21:25:10.840Z,41.05
2022-12-18T21:27:37.151Z,41.30
2022-12-18T21:30:03.762Z,37.88
2022-12-18T21:32:33.495Z,31.88
2022-12-18T21:35:00.034Z,44.67
2022-12-18T21:37:26.637Z,34.53
2022-12-18T21:39:52.960Z,39.15
2022-12-18T21:42:38.309Z,34.13
2022-12-18T21:45:04.963Z,42.20
2022-12-18T21:47:31.380Z,38.15
2022-12-18T21:49:57.669Z,37.97
2022-12-18T21:52:32.372Z,45.30
2022-12-18T21:55:09.086Z,35.55
2022-12-18T21:57:37.074Z,42.05
2022-12-18T22:00:04.148Z,40.95
2022-12-18T22:02:39.011Z,38.70
2022-12-18T22:05:05.802Z,40.90
2022-12-18T22:07:32.090Z,40.10
2022-12-18T22:09:58.581Z,39.20
2022-12-18T22:12:35.150Z,39.58
2022-12-18T22:15:02.529Z,41.35
2022-12-18T22:17:29.012Z,43.15
2022-12-18T22:19:55.794Z,38.20
2022-12-18T22:22:22.192Z,47.08
2022-12-18T22:24:48.527Z,43.45
2022-12-18T22:27:14.877Z,45.95
2022-12-18T22:29:59.936Z,39.00
2022-12-18T22:32:31.349Z,38.90
2022-12-18T22:35:07.921Z,44.88
2022-12-18T22:37:35.754Z,41.55
2022-12-18T22:40:03.766Z,44.05
2022-12-18T22:42:30.942Z,44.97
2022-12-18T22:44:57.347Z,42.78
2022-12-18T22:47:29.238Z,47.25
2022-12-18T22:49:56.331Z,41.78
2022-12-18T22:52:24.286Z,45.80
2022-12-18T22:54:53.286Z,44.78
2022-12-18T22:57:20.559Z,40.80
2022-12-18T22:59:47.065Z,39.55
2022-12-18T23:02:13.617Z,49.95
2022-12-18T23:04:40.094Z,42.55
2022-12-18T23:07:06.714Z,47.63
2022-12-18T23:09:33.153Z,48.88
2022-12-18T23:11:59.620Z,41.75
2022-12-18T23:14:26.051Z,52.28
2022-12-18T23:16:52.342Z,50.08
2022-12-18T23:19:19.661Z,41.00
2022-12-18T23:21:46.043Z,44.75
2022-12-18T23:24:12.396Z,39.58
2022-12-18T23:26:38.769Z,36.45
2022-12-18T23:29:05.193Z,42.75
2022-12-18T23:31:33.381Z,46.75
2022-12-18T23:34:00.621Z,47.63
2022-12-18T23:36:27.183Z,42.28
2022-12-18T23:38:54.999Z,51.30
2022-12-18T23:41:22.788Z,45.03
2022-12-18T23:43:49.332Z,48.47
2022-12-18T23:46:23.183Z,55.25
2022-12-18T23:48:49.948Z,55.38
2022-12-18T23:51:17.266Z,40.47
2022-12-18T23:53:44.331Z,44.53
2022-12-18T23:56:11.171Z,48.92
2022-12-18T23:58:38.009Z,43.70
